Time;durP1;ratioP1;P1;durP2;ratioP2;P2;SDS_P1;SDS_P2;PMS_P1;PMS_P2;Temp;Humidity;BMP_temperature;BMP_pressure;BME280_temperature;BME280_humidity;BME280_pressure;Samples;Min_cycle;Max_cycle;Signal;HPM_P1;HPM_P2
2021/03/31 00:01:14;;;;;;;25.48;20.80;;;12.00;66.50;;;;;;5026220;28;20045;-79
2021/03/31 00:03:40;;;;;;;27.25;19.95;;;11.90;66.50;;;;;;5027542;28;20475;-79
2021/03/31 00:06:06;;;;;;;21.77;17.10;;;11.80;66.60;;;;;;5033373;28;20033;-79
2021/03/31 00:08:31;;;;;;;22.95;20.17;;;11.80;66.70;;;;;;5032521;28;20049;-79
2021/03/31 00:10:59;;;;;;;22.38;19.17;;;11.80;66.80;;;;;;5023120;28;20049;-79
2021/03/31 00:13:25;;;;;;;24.73;19.65;;;11.70;67.00;;;;;;5020874;28;20033;-79
2021/03/31 00:15:51;;;;;;;24.23;19.90;;;11.70;66.90;;;;;;5021295;28;20034;-81
2021/03/31 00:18:18;;;;;;;24.98;19.35;;;11.60;67.20;;;;;;5030001;28;20045;-78
2021/03/31 00:20:45;;;;;;;22.30;19.08;;;11.60;67.20;;;;;;5025558;28;20055;-79
2021/03/31 00:23:12;;;;;;;27.95;20.20;;;11.60;67.30;;;;;;5018950;28;20067;-78
2021/03/31 00:25:39;;;;;;;24.67;19.55;;;11.50;67.20;;;;;;5006818;28;20038;-79
2021/03/31 00:28:06;;;;;;;27.20;19.83;;;11.50;67.60;;;;;;5009939;28;20129;-79
2021/03/31 00:30:32;;;;;;;26.27;20.60;;;11.40;67.80;;;;;;5032183;28;20067;-79
2021/03/31 00:32:57;;;;;;;24.55;20.27;;;11.40;68.00;;;;;;5031582;28;20099;-79
2021/03/31 00:35:23;;;;;;;25.05;19.70;;;11.40;68.60;;;;;;5025876;28;20068;-79
2021/03/31 00:37:49;;;;;;;26.77;19.23;;;11.30;68.70;;;;;;5031881;28;20033;-79
2021/03/31 00:40:17;;;;;;;24.38;18.58;;;11.30;68.70;;;;;;5027045;28;20033;-80
2021/03/31 00:42:44;;;;;;;24.95;18.65;;;11.20;68.80;;;;;;5031170;28;20146;-79
2021/03/31 00:45:11;;;;;;;25.23;18.80;;;11.20;69.00;;;;;;5006863;28;20045;-80
2021/03/31 00:47:37;;;;;;;24.88;19.25;;;11.20;69.60;;;;;;5025420;28;20034;-79
2021/03/31 00:50:08;;;;;;;22.70;18.42;;;11.10;70.20;;;;;;5027599;28;20033;-78
2021/03/31 00:52:35;;;;;;;24.42;18.38;;;11.00;70.70;;;;;;5032427;28;20024;-79
2021/03/31 00:55:01;;;;;;;24.77;18.98;;;11.00;71.20;;;;;;5023455;28;20046;-78
2021/03/31 00:57:27;;;;;;;26.73;19.40;;;10.90;71.50;;;;;;5029521;28;20102;-78
2021/03/31 00:59:52;;;;;;;26.10;19.23;;;10.80;71.90;;;;;;5029629;28;20046;-79
2021/03/31 01:02:18;;;;;;;29.48;19.60;;;10.80;71.90;;;;;;5030334;28;20357;-79
2021/03/31 01:04:44;;;;;;;24.23;18.50;;;10.80;72.20;;;;;;5032078;28;20029;-78
2021/03/31 01:07:09;;;;;;;26.73;19.60;;;10.70;72.30;;;;;;5025543;28;20568;-79
2021/03/31 01:09:35;;;;;;;23.27;18.83;;;10.70;72.60;;;;;;5030166;28;20075;-78
2021/03/31 01:12:25;;;;;;;25.95;19.40;;;10.60;72.80;;;;;;5030444;28;20052;-78
2021/03/31 01:15:10;;;;;;;24.50;19.92;;;10.60;72.90;;;;;;5022836;28;20076;-79
2021/03/31 01:17:45;;;;;;;26.38;19.48;;;10.60;73.00;;;;;;5027447;28;20029;-79
2021/03/31 01:20:13;;;;;;;24.52;20.67;;;10.60;72.90;;;;;;5028139;28;20658;-79
2021/03/31 01:23:01;;;;;;;24.25;20.48;;;10.60;72.90;;;;;;5028969;28;20040;-79
2021/03/31 01:25:37;;;;;;;25.85;20.17;;;10.50;73.20;;;;;;5006674;28;20038;-79
2021/03/31 01:28:14;;;;;;;24.13;20.25;;;10.60;73.30;;;;;;5005255;28;20053;-78
2021/03/31 01:30:52;;;;;;;25.05;20.85;;;10.50;73.40;;;;;;5004296;28;20041;-78
2021/03/31 01:33:24;;;;;;;22.80;20.13;;;10.50;73.40;;;;;;5009375;28;20129;-79
2021/03/31 01:35:52;;;;;;;23.70;20.05;;;10.50;73.30;;;;;;5010263;28;20023;-79
2021/03/31 01:38:22;;;;;;;24.40;20.23;;;10.50;73.20;;;;;;5016213;28;20468;-78
2021/03/31 01:40:50;;;;;;;25.23;20.10;;;10.50;73.00;;;;;;5029465;28;20041;-79
2021/03/31 01:43:20;;;;;;;25.58;20.92;;;10.40;73.00;;;;;;5030414;28;20136;-79
2021/03/31 01:45:53;;;;;;;24.92;20.55;;;10.40;72.90;;;;;;5043708;28;20016;-79
2021/03/31 01:48:22;;;;;;;24.63;19.33;;;10.40;72.70;;;;;;5054038;28;20033;-79
2021/03/31 01:50:55;;;;;;;24.42;20.58;;;10.30;72.70;;;;;;5065806;28;20034;-79
2021/03/31 01:53:22;;;;;;;25.50;19.90;;;10.30;72.80;;;;;;5060148;28;20029;-78
2021/03/31 01:55:51;;;;;;;25.20;20.27;;;10.30;72.60;;;;;;5058964;28;20037;-78
2021/03/31 01:58:18;;;;;;;25.88;20.20;;;10.30;72.20;;;;;;5030486;28;20033;-79
2021/03/31 02:00:44;;;;;;;26.92;20.35;;;10.20;72.30;;;;;;5034717;28;20033;-79
2021/03/31 02:03:10;;;;;;;23.38;20.08;;;10.20;72.30;;;;;;5033003;28;20044;-79
2021/03/31 02:05:36;;;;;;;27.13;20.45;;;10.10;72.30;;;;;;5033237;28;20083;-78
2021/03/31 02:08:04;;;;;;;23.05;19.80;;;10.10;72.20;;;;;;5040295;28;20049;-78
2021/03/31 02:10:31;;;;;;;26.08;18.90;;;10.10;72.40;;;;;;5031852;28;20021;-78
2021/03/31 02:12:58;;;;;;;25.05;20.08;;;10.10;72.60;;;;;;5034624;28;20029;-79
2021/03/31 02:15:30;;;;;;;23.55;19.25;;;10.10;72.60;;;;;;5029447;28;20038;-79
2021/03/31 02:18:00;;;;;;;24.42;20.10;;;10.00;72.70;;;;;;5038838;28;20402;-79
2021/03/31 02:20:26;;;;;;;24.50;19.75;;;10.00;72.70;;;;;;5031485;28;20045;-77
2021/03/31 02:22:53;;;;;;;24.42;18.90;;;10.00;72.60;;;;;;5033488;28;20157;-79
2021/03/31 02:25:19;;;;;;;24.80;18.67;;;9.90;72.70;;;;;;5036802;28;20055;-80
2021/03/31 02:27:46;;;;;;;25.20;19.65;;;9.90;72.70;;;;;;5032461;28;20047;-79
2021/03/31 02:30:15;;;;;;;25.40;19.42;;;9.90;72.80;;;;;;5026680;28;20044;-79
2021/03/31 02:32:43;;;;;;;23.23;18.63;;;9.80;73.00;;;;;;5029936;28;20056;-79
2021/03/31 02:35:10;;;;;;;21.95;18.85;;;9.80;72.80;;;;;;5035807;28;20041;-79
2021/03/31 02:37:39;;;;;;;20.90;18.35;;;9.70;72.80;;;;;;5043846;28;20052;-79
2021/03/31 02:40:07;;;;;;;22.98;19.08;;;9.70;72.80;;;;;;5041500;28;20511;-79
2021/03/31 02:42:34;;;;;;;24.70;18.98;;;9.70;72.80;;;;;;5025833;28;20071;-79
2021/03/31 02:45:01;;;;;;;23.40;18.10;;;9.60;72.80;;;;;;5032260;28;20041;-79
2021/03/31 02:47:31;;;;;;;27.08;19.33;;;9.60;73.00;;;;;;5029905;28;20045;-79
2021/03/31 02:50:01;;;;;;;22.75;19.95;;;9.60;72.90;;;;;;5030743;28;20038;-79
2021/03/31 02:52:28;;;;;;;28.70;20.88;;;9.60;73.00;;;;;;5025384;28;20049;-79
2021/03/31 02:54:55;;;;;;;25.13;19.23;;;9.50;73.20;;;;;;5027121;28;20404;-79
2021/03/31 02:57:22;;;;;;;22.35;18.23;;;9.50;73.40;;;;;;5007697;28;20745;-79
2021/03/31 02:59:49;;;;;;;23.40;18.88;;;9.50;73.20;;;;;;5009952;28;20056;-79
2021/03/31 03:02:17;;;;;;;28.13;19.00;;;9.40;73.20;;;;;;5007914;28;20034;-79
2021/03/31 03:04:46;;;;;;;22.95;17.98;;;9.40;73.50;;;;;;5020016;28;20026;-79
2021/03/31 03:07:12;;;;;;;22.95;18.17;;;9.40;73.50;;;;;;5012636;28;20038;-79
2021/03/31 03:09:39;;;;;;;25.10;19.90;;;9.30;73.50;;;;;;5015272;28;20091;-78
2021/03/31 03:12:08;;;;;;;22.63;18.63;;;9.30;73.40;;;;;;5015242;28;20065;-78
2021/03/31 03:14:33;;;;;;;25.70;18.50;;;9.30;73.50;;;;;;5010803;28;20037;-78
2021/03/31 03:16:59;;;;;;;24.10;18.55;;;9.30;73.70;;;;;;5014401;28;20033;-79
2021/03/31 03:19:25;;;;;;;27.73;19.65;;;9.20;73.80;;;;;;5004939;28;20021;-79
2021/03/31 03:21:51;;;;;;;28.08;18.70;;;9.10;73.60;;;;;;5011218;28;20042;-79
2021/03/31 03:24:18;;;;;;;23.60;19.10;;;9.10;74.00;;;;;;5010658;28;20030;-79
2021/03/31 03:26:44;;;;;;;25.58;19.42;;;9.10;74.20;;;;;;5013775;28;20454;-78
2021/03/31 03:29:11;;;;;;;24.58;19.00;;;9.10;74.20;;;;;;5006360;28;20042;-78
2021/03/31 03:31:38;;;;;;;24.02;19.45;;;9.10;74.00;;;;;;5007465;28;20368;-79
2021/03/31 03:34:07;;;;;;;24.02;19.23;;;9.10;74.00;;;;;;5017746;28;20034;-79
2021/03/31 03:36:34;;;;;;;24.92;19.40;;;9.10;74.00;;;;;;5016370;28;20050;-79
2021/03/31 03:39:00;;;;;;;21.90;18.73;;;9.10;74.20;;;;;;5015519;28;20042;-78
2021/03/31 03:41:25;;;;;;;23.58;18.48;;;9.00;74.20;;;;;;5021695;28;20029;-79
2021/03/31 03:43:55;;;;;;;23.25;18.05;;;9.00;74.30;;;;;;5011979;28;20030;-78
2021/03/31 03:46:21;;;;;;;23.25;18.60;;;8.90;74.30;;;;;;5027422;28;20221;-79
2021/03/31 03:48:47;;;;;;;23.10;18.20;;;9.00;74.40;;;;;;5031301;28;20472;-79
2021/03/31 03:51:13;;;;;;;25.23;18.40;;;9.00;74.50;;;;;;5029572;28;20474;-79
2021/03/31 03:53:39;;;;;;;24.88;20.52;;;8.90;74.70;;;;;;5037536;28;20029;-78
2021/03/31 03:56:12;;;;;;;25.52;20.63;;;8.90;74.60;;;;;;5030262;28;20117;-79
2021/03/31 03:58:39;;;;;;;24.23;18.80;;;8.90;74.50;;;;;;5031653;28;20658;-79
2021/03/31 04:01:04;;;;;;;26.95;19.33;;;8.90;74.60;;;;;;5030715;28;20029;-78
2021/03/31 04:03:30;;;;;;;24.02;18.23;;;8.90;74.50;;;;;;5028433;28;20032;-79
2021/03/31 04:05:56;;;;;;;23.92;19.02;;;8.80;74.70;;;;;;5032225;28;20041;-79
2021/03/31 04:08:22;;;;;;;25.63;18.40;;;8.80;74.70;;;;;;5029236;28;20037;-79
2021/03/31 04:10:53;;;;;;;23.33;18.40;;;8.70;74.80;;;;;;5033504;28;20044;-79
2021/03/31 04:13:23;;;;;;;29.63;19.38;;;8.70;74.90;;;;;;5036323;28;20036;-79
2021/03/31 04:15:53;;;;;;;27.38;19.30;;;8.70;74.90;;;;;;5031538;28;20056;-79
2021/03/31 04:18:21;;;;;;;23.33;18.90;;;8.60;75.10;;;;;;5030621;28;20132;-79
2021/03/31 04:20:49;;;;;;;24.55;19.65;;;8.60;75.40;;;;;;5030228;28;20112;-79
2021/03/31 04:23:15;;;;;;;25.58;19.42;;;8.60;75.70;;;;;;5026524;28;20049;-79
2021/03/31 04:25:41;;;;;;;24.50;19.25;;;8.60;76.00;;;;;;5030724;28;20029;-79
2021/03/31 04:28:09;;;;;;;29.02;20.05;;;8.60;76.00;;;;;;5023220;28;20032;-78
2021/03/31 04:30:36;;;;;;;24.02;18.77;;;8.50;76.20;;;;;;5028432;28;20038;-79
2021/03/31 04:33:02;;;;;;;24.30;19.33;;;8.50;76.10;;;;;;5028372;28;20029;-78
2021/03/31 04:35:28;;;;;;;23.33;19.65;;;8.40;76.10;;;;;;5026411;28;20044;-79
2021/03/31 04:38:09;;;;;;;24.52;20.63;;;8.40;76.30;;;;;;5028431;28;20073;-79
2021/03/31 04:40:52;;;;;;;25.95;20.15;;;8.40;76.60;;;;;;5029812;28;20873;-79
2021/03/31 04:43:20;;;;;;;27.58;20.55;;;8.40;76.90;;;;;;5027193;28;20117;-79
2021/03/31 04:45:46;;;;;;;25.30;19.08;;;8.40;77.00;;;;;;5028626;28;20175;-79
2021/03/31 04:48:11;;;;;;;26.92;20.67;;;8.40;77.10;;;;;;5024711;28;20752;-80
2021/03/31 04:50:37;;;;;;;24.60;19.52;;;8.30;77.00;;;;;;5033231;28;20611;-79
2021/03/31 04:53:03;;;;;;;26.35;19.35;;;8.30;77.20;;;;;;5027340;28;20049;-78
2021/03/31 04:55:28;;;;;;;26.00;20.58;;;8.20;77.30;;;;;;5032096;28;20483;-79
2021/03/31 04:57:54;;;;;;;24.40;19.75;;;8.30;77.50;;;;;;5028277;28;20036;-79
2021/03/31 05:00:20;;;;;;;26.80;20.30;;;8.20;77.60;;;;;;5030309;28;20036;-79
2021/03/31 05:02:46;;;;;;;25.25;19.70;;;8.20;77.50;;;;;;5025959;28;20091;-80
2021/03/31 05:05:12;;;;;;;28.15;22.38;;;8.20;77.40;;;;;;5028309;28;20946;-79
2021/03/31 05:07:38;;;;;;;27.83;20.40;;;8.20;77.30;;;;;;5030256;28;20057;-79
2021/03/31 05:10:04;;;;;;;24.38;18.67;;;8.20;77.20;;;;;;5021291;28;20577;-78
2021/03/31 05:12:29;;;;;;;31.33;21.38;;;8.30;77.20;;;;;;5014329;28;20034;-79
2021/03/31 05:14:56;;;;;;;28.48;19.63;;;8.20;77.10;;;;;;5028720;28;20082;-80
2021/03/31 05:17:22;;;;;;;29.30;20.83;;;8.20;76.90;;;;;;5027019;28;20044;-80
2021/03/31 05:19:48;;;;;;;27.00;19.70;;;8.30;76.80;;;;;;5024500;28;20037;-80
2021/03/31 05:22:14;;;;;;;27.48;21.23;;;8.40;76.70;;;;;;5026179;28;21278;-80
2021/03/31 05:24:40;;;;;;;29.52;20.95;;;8.30;76.40;;;;;;5031397;28;20547;-80
2021/03/31 05:27:06;;;;;;;28.65;21.02;;;8.40;75.90;;;;;;5026616;28;20086;-80
2021/03/31 05:29:31;;;;;;;29.45;21.40;;;8.40;75.50;;;;;;5027799;28;20057;-80
2021/03/31 05:31:58;;;;;;;28.35;19.85;;;8.40;75.70;;;;;;5030057;28;20120;-80
2021/03/31 05:34:24;;;;;;;31.08;21.30;;;8.40;75.70;;;;;;5046144;28;20081;-80
2021/03/31 05:36:49;;;;;;;27.80;21.05;;;8.40;75.80;;;;;;5026324;28;20040;-80
2021/03/31 05:39:15;;;;;;;32.40;22.73;;;8.50;75.80;;;;;;5027942;28;20036;-79
2021/03/31 05:41:41;;;;;;;35.20;24.15;;;8.50;75.60;;;;;;5028219;28;20108;-79
2021/03/31 05:44:08;;;;;;;32.22;20.90;;;8.50;75.50;;;;;;5031041;28;20037;-78
2021/03/31 05:46:36;;;;;;;32.70;23.08;;;8.60;75.30;;;;;;5025474;28;20068;-79
2021/03/31 05:49:02;;;;;;;35.88;22.00;;;8.60;75.30;;;;;;5025416;28;20538;-79
2021/03/31 05:51:28;;;;;;;33.45;22.08;;;8.60;75.30;;;;;;5026546;28;20052;-79
2021/03/31 05:53:54;;;;;;;31.20;21.40;;;8.70;75.20;;;;;;5024604;28;20033;-79
2021/03/31 05:56:21;;;;;;;37.03;22.00;;;8.70;75.10;;;;;;5031287;28;20029;-78
2021/03/31 05:58:47;;;;;;;32.88;22.13;;;8.80;74.90;;;;;;5023970;28;20470;-80
2021/03/31 06:01:13;;;;;;;32.72;20.52;;;8.90;74.80;;;;;;5027011;28;20156;-78
2021/03/31 06:03:39;;;;;;;27.73;21.27;;;8.90;74.70;;;;;;5032422;28;20041;-79
2021/03/31 06:06:05;;;;;;;38.67;22.92;;;8.90;74.70;;;;;;5030979;28;20052;-79
2021/03/31 06:08:31;;;;;;;29.13;20.80;;;9.00;74.70;;;;;;5041937;28;20491;-79
2021/03/31 06:11:01;;;;;;;32.15;21.83;;;9.10;74.50;;;;;;5023847;28;20030;-79
2021/03/31 06:13:47;;;;;;;33.03;21.85;;;9.10;74.20;;;;;;5032171;28;20351;-79
2021/03/31 06:16:37;;;;;;;30.92;21.83;;;9.10;74.00;;;;;;5023200;28;20464;-79
2021/03/31 06:19:22;;;;;;;29.92;20.10;;;9.10;74.00;;;;;;5042134;28;20721;-79
2021/03/31 06:22:05;;;;;;;32.42;21.15;;;9.30;74.00;;;;;;5025455;28;20037;-79
2021/03/31 06:24:32;;;;;;;28.27;19.80;;;9.40;73.90;;;;;;5027548;28;20112;-79
2021/03/31 06:26:58;;;;;;;28.48;20.05;;;9.50;73.80;;;;;;5031223;28;20562;-79
2021/03/31 06:29:23;;;;;;;30.98;23.33;;;9.60;73.80;;;;;;5026244;28;20396;-78
2021/03/31 06:31:50;;;;;;;30.35;21.65;;;9.60;73.70;;;;;;5028226;28;20465;-79
2021/03/31 06:34:25;;;;;;;31.55;22.30;;;9.70;73.50;;;;;;5033044;28;20082;-79
2021/03/31 06:36:57;;;;;;;25.98;20.55;;;9.80;73.20;;;;;;5027967;28;20037;-79
2021/03/31 06:39:32;;;;;;;33.97;20.63;;;9.90;73.20;;;;;;5027361;28;20364;-78
2021/03/31 06:42:15;;;;;;;28.38;20.90;;;10.00;73.10;;;;;;5031214;28;20046;-79
2021/03/31 06:48:08;;;;;;;32.22;22.60;;;10.10;72.80;;;;;;5002146;28;20724;-71
2021/03/31 06:50:37;;;;;;;27.77;21.20;;;10.20;72.30;;;;;;5029160;28;20050;-72
2021/03/31 06:53:05;;;;;;;27.00;20.52;;;10.30;71.80;;;;;;5032142;28;20037;-72
2021/03/31 06:55:32;;;;;;;36.60;23.05;;;10.50;71.50;;;;;;5025686;28;20491;-73
2021/03/31 06:58:01;;;;;;;33.53;22.48;;;10.60;71.00;;;;;;5021954;28;20112;-72
2021/03/31 07:00:32;;;;;;;34.28;24.13;;;10.80;70.50;;;;;;5014650;28;20519;-74
2021/03/31 07:03:02;;;;;;;35.97;23.48;;;11.00;69.90;;;;;;5030961;28;20076;-74
2021/03/31 07:05:33;;;;;;;36.55;22.95;;;11.20;70.10;;;;;;5026032;28;20052;-73
2021/03/31 07:08:15;;;;;;;31.73;22.70;;;11.40;69.40;;;;;;5031339;28;20034;-75
2021/03/31 07:10:51;;;;;;;34.92;22.10;;;11.60;68.90;;;;;;5025065;28;20080;-73
2021/03/31 07:13:34;;;;;;;32.88;21.90;;;11.80;68.60;;;;;;5021960;28;20041;-78
2021/03/31 07:16:03;;;;;;;31.92;23.15;;;12.00;68.20;;;;;;5020831;28;20476;-78
2021/03/31 07:18:29;;;;;;;39.13;23.02;;;12.10;68.00;;;;;;5026224;28;20041;-76
2021/03/31 07:20:55;;;;;;;30.30;21.65;;;12.40;67.70;;;;;;5024731;28;20060;-73
2021/03/31 07:23:22;;;;;;;29.33;22.58;;;12.60;67.20;;;;;;5031767;28;20064;-73
2021/03/31 07:25:58;;;;;;;34.50;22.55;;;12.70;66.60;;;;;;5028083;28;20072;-73
2021/03/31 07:28:26;;;;;;;33.67;19.77;;;12.90;66.60;;;;;;5024631;28;20044;-74
2021/03/31 07:30:52;;;;;;;30.77;20.63;;;13.10;64.80;;;;;;5023288;28;20064;-76
2021/03/31 07:33:23;;;;;;;35.35;20.08;;;13.20;64.50;;;;;;5026757;28;20026;-72
2021/03/31 07:35:50;;;;;;;30.27;19.30;;;13.50;63.30;;;;;;5024988;28;20096;-75
2021/03/31 07:38:19;;;;;;;30.85;19.55;;;13.70;61.80;;;;;;5019366;28;20072;-76
2021/03/31 07:40:48;;;;;;;36.97;19.95;;;13.90;61.00;;;;;;5023992;28;20116;-74
2021/03/31 07:43:20;;;;;;;29.55;18.20;;;14.20;60.80;;;;;;5016937;28;20547;-74
2021/03/31 07:46:00;;;;;;;32.25;19.08;;;14.40;59.70;;;;;;5038902;28;20049;-77
2021/03/31 07:48:26;;;;;;;31.67;19.00;;;14.60;59.30;;;;;;5024800;28;20068;-79
2021/03/31 07:50:52;;;;;;;32.67;19.65;;;14.90;59.00;;;;;;5029815;28;20093;-79
2021/03/31 07:53:23;;;;;;;28.42;18.95;;;15.10;58.50;;;;;;5025986;28;20045;-79
2021/03/31 07:55:49;;;;;;;36.22;19.63;;;15.30;57.00;;;;;;5016427;28;20095;-79
2021/03/31 07:58:30;;;;;;;36.88;19.67;;;15.60;55.90;;;;;;5027008;28;20048;-73
2021/03/31 08:01:02;;;;;;;35.63;20.48;;;15.70;55.70;;;;;;5030615;28;20056;-73
2021/03/31 08:03:47;;;;;;;33.70;19.80;;;16.00;54.60;;;;;;5028633;28;20033;-74
2021/03/31 08:06:32;;;;;;;34.83;20.60;;;16.20;55.00;;;;;;5027684;28;20082;-74
2021/03/31 08:09:02;;;;;;;36.08;20.67;;;16.50;54.50;;;;;;5025898;28;20033;-74
2021/03/31 08:11:40;;;;;;;32.10;20.45;;;16.60;54.00;;;;;;5029196;28;20559;-75
2021/03/31 08:14:09;;;;;;;34.88;20.92;;;16.80;53.00;;;;;;5031163;28;20057;-75
2021/03/31 08:16:49;;;;;;;32.25;19.85;;;17.10;52.40;;;;;;5028417;28;20045;-75
2021/03/31 08:19:19;;;;;;;33.70;19.80;;;17.20;51.80;;;;;;5026321;28;20065;-74
2021/03/31 08:21:48;;;;;;;33.03;20.00;;;17.40;50.80;;;;;;5029265;28;20033;-73
2021/03/31 08:24:15;;;;;;;35.05;21.50;;;17.50;50.30;;;;;;5024467;28;20041;-78
2021/03/31 08:26:45;;;;;;;34.92;20.42;;;17.60;49.50;;;;;;5022089;28;20072;-73
2021/03/31 08:29:17;;;;;;;38.05;21.30;;;17.80;50.10;;;;;;5028708;28;20057;-78
2021/03/31 08:31:43;;;;;;;41.53;22.25;;;18.00;49.20;;;;;;5030764;28;20741;-75
2021/03/31 08:34:10;;;;;;;36.80;22.23;;;18.20;49.40;;;;;;5031731;28;20108;-73
2021/03/31 08:36:37;;;;;;;38.45;22.88;;;18.40;48.00;;;;;;5027289;28;20053;-74
2021/03/31 08:39:05;;;;;;;38.00;22.55;;;18.50;48.40;;;;;;5026773;28;20050;-73
2021/03/31 08:41:31;;;;;;;37.40;22.05;;;18.80;47.90;;;;;;5017614;28;20113;-79
2021/03/31 08:44:12;;;;;;;40.38;22.08;;;19.00;47.70;;;;;;5017672;28;20112;-76
2021/03/31 08:46:39;;;;;;;34.60;21.38;;;19.10;47.20;;;;;;5027856;28;20079;-76
2021/03/31 08:49:04;;;;;;;38.35;21.70;;;19.40;46.60;;;;;;5021567;28;20046;-74
2021/03/31 08:51:30;;;;;;;36.30;21.73;;;19.50;46.70;;;;;;5026142;28;20032;-76
2021/03/31 08:54:02;;;;;;;37.05;21.27;;;19.70;46.30;;;;;;5028117;28;20496;-79
2021/03/31 08:56:28;;;;;;;36.10;19.92;;;19.80;45.50;;;;;;5031537;28;20053;-73
2021/03/31 08:58:56;;;;;;;38.22;21.23;;;20.00;46.20;;;;;;5030483;28;20045;-72
2021/03/31 09:01:30;;;;;;;31.98;20.23;;;20.00;45.60;;;;;;5023660;28;20491;-72
2021/03/31 09:04:14;;;;;;;;;;;20.10;45.60;;;;;;5027940;28;20030;-72
2021/03/31 09:06:40;;;;;;;35.55;19.33;;;20.20;45.30;;;;;;5010755;28;20020;-74
2021/03/31 09:09:06;;;;;;;35.70;20.70;;;20.30;45.30;;;;;;5020977;28;20094;-73
2021/03/31 09:11:32;;;;;;;34.10;18.70;;;20.50;45.30;;;;;;5013962;28;20033;-74
2021/03/31 09:14:21;;;;;;;32.17;18.83;;;20.60;44.90;;;;;;5022231;28;20838;-73
2021/03/31 09:17:07;;;;;;;32.28;19.10;;;20.70;45.30;;;;;;5031097;28;20033;-73
2021/03/31 09:19:38;;;;;;;30.40;18.00;;;20.80;43.60;;;;;;5030299;28;20061;-75
2021/03/31 09:22:10;;;;;;;32.17;18.45;;;20.80;44.70;;;;;;5023730;28;20520;-73
2021/03/31 09:25:04;;;;;;;31.98;19.13;;;21.00;44.70;;;;;;5031676;28;20069;-73
2021/03/31 09:27:32;;;;;;;37.75;19.05;;;21.00;44.00;;;;;;5011593;28;20062;-73
2021/03/31 09:30:03;;;;;;;33.67;18.60;;;21.10;44.10;;;;;;5014856;28;20542;-75
2021/03/31 09:32:33;;;;;;;33.13;18.95;;;21.10;44.10;;;;;;5022143;28;20590;-73
2021/03/31 09:35:13;;;;;;;33.50;18.10;;;21.40;43.70;;;;;;5023500;28;20125;-72
2021/03/31 09:37:47;;;;;;;33.08;18.40;;;21.40;43.20;;;;;;5037252;28;20592;-73
2021/03/31 09:40:23;;;;;;;30.77;18.20;;;21.60;43.90;;;;;;5024328;28;20508;-72
2021/03/31 09:43:03;;;;;;;31.90;18.27;;;21.80;43.90;;;;;;5026385;28;20484;-73
2021/03/31 09:45:31;;;;;;;30.15;17.85;;;21.90;44.30;;;;;;5021406;28;20045;-73
2021/03/31 09:47:58;;;;;;;31.23;18.98;;;22.00;42.60;;;;;;5026635;28;20669;-73
2021/03/31 09:50:26;;;;;;;27.23;17.73;;;22.20;41.40;;;;;;5025302;28;20480;-76
2021/03/31 09:52:56;;;;;;;31.95;18.48;;;22.30;42.10;;;;;;5025974;28;20038;-75
2021/03/31 09:55:22;;;;;;;31.48;17.73;;;22.40;41.40;;;;;;5026677;28;20052;-72
2021/03/31 09:57:50;;;;;;;31.13;18.15;;;22.50;41.50;;;;;;5032511;28;20033;-75
2021/03/31 10:00:18;;;;;;;29.92;17.67;;;22.60;40.70;;;;;;5024654;28;20029;-72
2021/03/31 10:02:45;;;;;;;30.45;17.38;;;22.60;40.80;;;;;;5030654;28;20065;-78
2021/03/31 10:05:20;;;;;;;33.05;18.23;;;22.70;41.30;;;;;;5028768;28;20138;-74
2021/03/31 10:08:04;;;;;;;30.08;19.05;;;22.80;40.90;;;;;;5031826;28;20075;-72
2021/03/31 10:10:39;;;;;;;33.50;18.33;;;22.90;40.50;;;;;;5034350;28;20040;-73
2021/03/31 10:13:05;;;;;;;27.50;17.42;;;23.00;40.10;;;;;;5034969;28;20385;-75
2021/03/31 10:15:31;;;;;;;32.05;17.90;;;23.10;40.70;;;;;;5031306;28;20044;-74
2021/03/31 10:17:56;;;;;;;31.63;18.13;;;23.10;39.60;;;;;;5030400;28;20040;-74
2021/03/31 10:20:22;;;;;;;31.33;18.77;;;23.10;38.80;;;;;;5030360;28;20038;-77
2021/03/31 10:22:54;;;;;;;32.08;17.42;;;23.20;39.90;;;;;;5031134;28;20033;-72
2021/03/31 10:25:27;;;;;;;28.35;16.63;;;23.30;39.90;;;;;;5027514;28;20068;-72
2021/03/31 10:27:53;;;;;;;28.10;17.80;;;23.60;40.40;;;;;;5024477;28;21256;-71
2021/03/31 10:30:29;;;;;;;31.50;18.55;;;23.60;39.60;;;;;;5032721;28;20109;-76
2021/03/31 10:32:55;;;;;;;33.10;18.17;;;23.80;39.20;;;;;;5030135;28;20035;-71
2021/03/31 10:35:53;;;;;;;30.40;17.17;;;23.70;38.80;;;;;;5026197;28;20127;-73
2021/03/31 10:38:44;;;;;;;34.80;18.85;;;23.70;39.20;;;;;;5023637;28;20062;-72
2021/03/31 10:52:16;;;;;;;30.23;16.65;;;24.40;37.50;;;;;;5009678;28;20497;-72
2021/03/31 10:54:42;;;;;;;27.40;15.32;;;24.50;36.90;;;;;;5011521;28;20052;-73
2021/03/31 10:57:10;;;;;;;30.20;15.32;;;24.40;36.80;;;;;;5003113;28;20034;-75
2021/03/31 10:59:37;;;;;;;25.98;14.93;;;24.50;36.50;;;;;;5008177;28;20038;-74
2021/03/31 11:02:03;;;;;;;29.85;15.88;;;24.40;37.20;;;;;;5000418;28;20052;-74
2021/03/31 11:04:29;;;;;;;24.60;14.13;;;24.50;36.80;;;;;;5004885;28;20112;-73
2021/03/31 11:06:54;;;;;;;28.40;14.30;;;24.60;37.00;;;;;;5007808;28;20081;-76
2021/03/31 11:09:20;;;;;;;27.08;13.77;;;24.80;35.90;;;;;;4999873;28;20053;-79
2021/03/31 11:11:46;;;;;;;27.25;15.38;;;24.80;35.00;;;;;;5007452;28;20121;-75
2021/03/31 11:14:13;;;;;;;26.75;14.07;;;24.80;35.00;;;;;;5015218;28;20077;-73
2021/03/31 11:16:42;;;;;;;26.42;14.50;;;24.80;34.80;;;;;;5004497;28;20026;-73
2021/03/31 11:26:55;;;;;;;;;;;25.00;34.20;;;;;;5005566;28;20052;-74
2021/03/31 11:29:21;;;;;;;28.15;14.45;;;25.00;33.20;;;;;;5002120;28;19929;-73
2021/03/31 11:31:47;;;;;;;22.65;12.80;;;25.00;35.60;;;;;;5010916;28;20486;-76
2021/03/31 11:34:13;;;;;;;22.13;14.15;;;25.00;34.30;;;;;;5024776;28;20109;-75
2021/03/31 11:36:39;;;;;;;22.90;13.23;;;25.20;35.20;;;;;;5030731;28;20040;-82
2021/03/31 11:39:05;;;;;;;22.58;12.98;;;25.30;34.00;;;;;;5029953;28;20036;-74
2021/03/31 11:41:31;;;;;;;21.92;11.55;;;25.40;34.20;;;;;;5041304;28;20515;-87
2021/03/31 11:43:56;;;;;;;25.08;12.52;;;25.60;32.20;;;;;;5028310;28;20033;-73
2021/03/31 11:46:22;;;;;;;20.73;11.93;;;25.50;32.00;;;;;;5027217;28;20036;-71
2021/03/31 11:48:48;;;;;;;18.63;11.23;;;25.40;31.80;;;;;;5040395;28;20038;-74
2021/03/31 11:51:14;;;;;;;17.33;10.90;;;25.20;32.00;;;;;;5030770;28;20473;-76
2021/03/31 11:53:39;;;;;;;22.27;12.57;;;25.30;32.70;;;;;;5030209;28;20037;-73
2021/03/31 11:56:06;;;;;;;20.85;10.90;;;25.40;32.70;;;;;;5021949;28;20114;-73
2021/03/31 11:58:32;;;;;;;15.65;9.38;;;25.50;32.40;;;;;;5023697;28;20087;-80
2021/03/31 12:00:58;;;;;;;18.83;12.55;;;25.60;31.50;;;;;;5036650;28;20428;-73
2021/03/31 12:03:24;;;;;;;19.02;11.38;;;25.70;32.00;;;;;;5028065;28;20534;-78
2021/03/31 12:05:50;;;;;;;18.33;11.15;;;25.80;31.90;;;;;;5019235;28;20170;-74
2021/03/31 12:08:17;;;;;;;20.02;10.98;;;25.60;31.40;;;;;;5026376;28;20444;-74
2021/03/31 12:10:42;;;;;;;19.52;11.68;;;25.70;32.20;;;;;;5029183;28;20037;-76
2021/03/31 12:13:08;;;;;;;18.67;11.60;;;25.50;32.10;;;;;;5026905;28;20079;-75
2021/03/31 12:15:34;;;;;;;17.45;11.32;;;25.30;32.20;;;;;;4999362;28;20137;-76
2021/03/31 12:17:59;;;;;;;18.25;10.88;;;25.50;32.40;;;;;;5008014;28;20029;-82
2021/03/31 12:20:25;;;;;;;16.95;10.07;;;25.60;31.60;;;;;;5013442;28;20095;-73
2021/03/31 12:22:51;;;;;;;16.05;10.55;;;25.60;29.60;;;;;;5015085;28;20037;-71
2021/03/31 12:25:20;;;;;;;15.90;9.77;;;25.60;32.00;;;;;;5020888;28;20425;-80
2021/03/31 12:27:47;;;;;;;15.13;9.35;;;25.80;31.60;;;;;;5025103;28;20044;-81
2021/03/31 12:30:14;;;;;;;15.80;9.13;;;25.80;29.10;;;;;;5029215;28;20040;-78
2021/03/31 12:32:41;;;;;;;14.20;8.80;;;25.70;30.80;;;;;;5029430;28;20117;-82
2021/03/31 12:35:07;;;;;;;17.27;9.18;;;25.80;28.90;;;;;;5028090;28;20041;-72
2021/03/31 12:37:33;;;;;;;14.52;8.80;;;25.70;28.50;;;;;;5029041;28;20134;-74
2021/03/31 12:39:59;;;;;;;14.57;8.25;;;25.70;28.90;;;;;;5029504;28;20123;-73
2021/03/31 12:42:25;;;;;;;14.35;7.95;;;25.70;28.90;;;;;;5030544;28;20179;-74
2021/03/31 12:44:51;;;;;;;14.95;9.23;;;25.90;27.50;;;;;;5030473;28;20401;-79
2021/03/31 12:47:21;;;;;;;15.43;9.68;;;26.10;28.20;;;;;;5039197;28;20130;-73
2021/03/31 12:49:49;;;;;;;13.73;7.40;;;25.80;27.20;;;;;;5030628;28;21497;-79
2021/03/31 12:52:16;;;;;;;12.73;8.25;;;26.00;26.40;;;;;;5023984;28;20030;-77
2021/03/31 12:55:00;;;;;;;15.65;9.98;;;26.00;26.70;;;;;;5025970;28;20036;-73
2021/03/31 12:57:26;;;;;;;;;;;26.10;27.40;;;;;;5029809;28;20408;-73
2021/03/31 12:59:52;;;;;;;13.50;8.30;;;26.10;28.00;;;;;;5022509;28;20383;-74
2021/03/31 13:02:17;;;;;;;13.65;8.18;;;26.00;27.40;;;;;;5022972;28;20110;-73